createdAt,value
2022-09-11T00:00:06.157Z,9.37
2022-09-11T00:01:47.127Z,10.07
2022-09-11T00:03:20.090Z,9.57
2022-09-11T00:04:53.124Z,8.47
2022-09-11T00:06:30.100Z,8.60
2022-09-11T00:08:03.969Z,8.53
2022-09-11T00:09:37.221Z,8.37
2022-09-11T00:11:12.459Z,7.33
2022-09-11T00:12:45.850Z,8.23
2022-09-11T00:14:20.092Z,7.77
2022-09-11T00:15:54.639Z,7.73
2022-09-11T00:17:26.733Z,8.57
2022-09-11T00:19:01.343Z,8.70
2022-09-11T00:20:35.406Z,7.57
2022-09-11T00:22:09.266Z,7.50
2022-09-11T00:23:41.457Z,6.60
2022-09-11T00:25:14.645Z,6.73
2022-09-11T00:26:47.883Z,7.33
2022-09-11T00:28:21.697Z,6.33
2022-09-11T00:29:54.899Z,6.27
2022-09-11T00:31:32.502Z,6.30
2022-09-11T00:33:05.105Z,5.93
2022-09-11T00:34:39.319Z,6.60
2022-09-11T00:36:14.408Z,7.30
2022-09-11T00:37:48.742Z,6.30
2022-09-11T00:39:21.939Z,5.73
2022-09-11T00:40:54.829Z,6.57
2022-09-11T00:42:27.850Z,5.80
2022-09-11T00:44:03.864Z,7.60
2022-09-11T00:45:36.164Z,6.20
2022-09-11T00:47:15.433Z,6.57
2022-09-11T00:48:50.305Z,7.80
2022-09-11T00:50:26.233Z,6.83
2022-09-11T00:52:02.682Z,6.83
2022-09-11T00:53:36.814Z,7.60
2022-09-11T00:55:14.542Z,8.10
2022-09-11T00:56:48.744Z,7.80
2022-09-11T00:58:27.057Z,6.57
2022-09-11T01:00:02.588Z,6.03
2022-09-11T01:01:34.754Z,7.27
2022-09-11T01:03:09.466Z,7.53
2022-09-11T01:04:42.530Z,6.53
2022-09-11T01:06:16.016Z,5.90
2022-09-11T01:07:49.897Z,6.30
2022-09-11T01:09:23.294Z,5.50
2022-09-11T01:11:05.853Z,5.90
2022-09-11T01:12:48.737Z,6.03
2022-09-11T01:14:37.509Z,6.10
2022-09-11T01:16:19.117Z,6.13
2022-09-11T01:18:03.529Z,5.90
2022-09-11T01:19:53.961Z,7.07
2022-09-11T01:21:45.067Z,5.93
2022-09-11T01:23:46.613Z,6.80
2022-09-11T01:25:28.686Z,6.87
2022-09-11T01:27:28.230Z,6.23
2022-09-11T01:29:06.349Z,7.00
2022-09-11T01:30:46.699Z,5.83
2022-09-11T01:32:24.170Z,5.83
2022-09-11T01:34:01.096Z,6.43
2022-09-11T01:35:42.927Z,5.97
2022-09-11T01:37:24.572Z,5.97
2022-09-11T01:39:02.157Z,5.87
2022-09-11T01:40:45.908Z,6.43
2022-09-11T01:42:23.482Z,5.97
2022-09-11T01:44:03.802Z,6.20
2022-09-11T01:45:42.151Z,5.83
2022-09-11T01:47:18.239Z,6.20
2022-09-11T01:48:59.498Z,6.83
2022-09-11T01:50:33.917Z,6.17
2022-09-11T01:52:10.541Z,7.40
2022-09-11T01:53:50.022Z,6.70
2022-09-11T01:55:29.542Z,7.30
2022-09-11T01:57:06.955Z,6.73
2022-09-11T01:58:41.550Z,6.20
2022-09-11T02:00:17.642Z,6.40
2022-09-11T02:02:03.240Z,6.40
2022-09-11T02:03:40.595Z,7.37
2022-09-11T02:05:18.072Z,6.00
2022-09-11T02:06:57.131Z,7.10
2022-09-11T02:08:40.082Z,6.57
2022-09-11T02:10:18.157Z,7.30
2022-09-11T02:11:55.147Z,7.93
2022-09-11T02:13:35.349Z,7.57
2022-09-11T02:15:11.382Z,7.40
2022-09-11T02:16:53.418Z,7.10
2022-09-11T02:18:29.486Z,7.40
2022-09-11T02:20:03.277Z,7.23
2022-09-11T02:21:37.299Z,6.87
2022-09-11T02:23:11.092Z,6.57
2022-09-11T02:24:44.258Z,7.17
2022-09-11T02:26:19.560Z,6.93
2022-09-11T02:27:52.620Z,8.03
2022-09-11T02:29:26.714Z,7.40
2022-09-11T02:31:02.471Z,7.40
2022-09-11T02:32:39.134Z,7.17
2022-09-11T02:34:14.458Z,7.37
2022-09-11T02:35:52.439Z,6.90
2022-09-11T02:37:40.100Z,6.87
2022-09-11T02:39:31.100Z,6.00
2022-09-11T02:41:10.071Z,6.90
2022-09-11T02:42:56.984Z,6.63
2022-09-11T02:44:38.710Z,6.80
2022-09-11T02:46:34.853Z,7.03
2022-09-11T02:48:29.301Z,7.10
2022-09-11T02:50:09.459Z,6.67
2022-09-11T02:51:52.971Z,6.53
2022-09-11T02:53:34.139Z,5.70
2022-09-11T02:55:12.773Z,6.23
2022-09-11T02:56:49.133Z,5.63
2022-09-11T02:58:27.290Z,6.03
2022-09-11T03:00:03.770Z,6.47
2022-09-11T03:01:49.097Z,5.30
2022-09-11T03:03:23.553Z,5.50
2022-09-11T03:04:58.039Z,5.63
2022-09-11T03:06:31.244Z,5.47
2022-09-11T03:08:04.425Z,5.63
2022-09-11T03:09:37.576Z,6.60
2022-09-11T03:11:17.736Z,6.23
2022-09-11T03:12:52.410Z,6.07
2022-09-11T03:14:25.234Z,7.23
2022-09-11T03:15:58.339Z,6.70
2022-09-11T03:17:32.653Z,7.43
2022-09-11T03:19:07.263Z,7.73
2022-09-11T03:20:40.428Z,6.57
2022-09-11T03:22:15.007Z,6.90
2022-09-11T03:23:48.927Z,6.77
2022-09-11T03:25:23.592Z,7.90
2022-09-11T03:26:59.117Z,6.20
2022-09-11T03:28:34.326Z,6.63
2022-09-11T03:30:13.115Z,6.00
2022-09-11T03:31:45.216Z,6.57
2022-09-11T03:33:18.695Z,5.73
2022-09-11T03:34:53.155Z,6.10
2022-09-11T03:36:26.253Z,5.90
2022-09-11T03:38:00.838Z,6.10
2022-09-11T03:39:33.894Z,5.83
2022-09-11T03:41:09.293Z,5.37
2022-09-11T03:42:42.348Z,4.90
2022-09-11T03:44:15.356Z,5.50
2022-09-11T03:45:50.123Z,6.17
2022-09-11T03:47:23.283Z,5.57
2022-09-11T03:48:56.366Z,5.17
2022-09-11T03:50:30.770Z,5.47
2022-09-11T03:52:04.793Z,5.77
2022-09-11T03:53:38.790Z,6.63
2022-09-11T03:55:12.193Z,5.77
2022-09-11T03:56:45.233Z,5.47
2022-09-11T03:58:19.754Z,5.83
2022-09-11T03:59:53.153Z,5.97
2022-09-11T04:01:26.482Z,5.87
2022-09-11T04:02:58.588Z,6.60
2022-09-11T04:04:39.574Z,5.20
2022-09-11T04:06:13.884Z,5.63
2022-09-11T04:07:46.914Z,5.63
2022-09-11T04:09:20.203Z,5.23
2022-09-11T04:10:58.387Z,5.40
2022-09-11T04:12:31.437Z,5.17
2022-09-11T04:14:04.511Z,5.20
2022-09-11T04:15:37.576Z,4.87
2022-09-11T04:17:10.669Z,5.40
2022-09-11T04:18:46.932Z,5.00
2022-09-11T04:20:20.737Z,4.90
2022-09-11T04:21:55.249Z,5.50
2022-09-11T04:23:28.412Z,5.53
2022-09-11T04:25:02.138Z,4.70
2022-09-11T04:26:35.933Z,5.63
2022-09-11T04:28:30.549Z,5.60
2022-09-11T04:30:03.654Z,5.10
2022-09-11T04:31:37.367Z,5.30
2022-09-11T04:33:09.737Z,4.70
2022-09-11T04:34:43.537Z,4.90
2022-09-11T04:36:18.611Z,5.10
2022-09-11T04:37:53.480Z,5.77
2022-09-11T04:39:26.927Z,6.00
2022-09-11T04:41:00.828Z,6.80
2022-09-11T04:42:33.940Z,6.23
2022-09-11T04:44:06.033Z,6.47
2022-09-11T04:45:45.992Z,5.70
2022-09-11T04:47:19.593Z,5.80
2022-09-11T04:48:54.460Z,7.00
2022-09-11T04:50:31.464Z,5.30
2022-09-11T04:52:27.874Z,5.07
2022-09-11T04:54:02.958Z,4.97
2022-09-11T04:55:39.375Z,5.40
2022-09-11T04:57:14.012Z,5.17
2022-09-11T04:58:47.125Z,4.73
2022-09-11T05:00:19.520Z,5.50
2022-09-11T05:01:54.503Z,5.60
2022-09-11T05:03:27.426Z,5.40
2022-09-11T05:05:02.796Z,4.90
2022-09-11T05:06:37.940Z,5.23
2022-09-11T05:08:13.958Z,4.80
2022-09-11T05:09:48.724Z,3.63
2022-09-11T05:11:25.912Z,3.40
2022-09-11T05:12:59.049Z,3.50
2022-09-11T05:14:33.065Z,3.07
2022-09-11T05:16:09.301Z,3.13
2022-09-11T05:17:42.397Z,2.77
2022-09-11T05:19:16.916Z,2.80
2022-09-11T05:21:00.519Z,2.40
2022-09-11T05:22:33.754Z,2.47
2022-09-11T05:24:08.268Z,2.40
2022-09-11T05:25:42.910Z,2.57
2022-09-11T05:27:15.985Z,2.60
2022-09-11T05:28:54.259Z,2.47
2022-09-11T05:30:27.462Z,2.57
2022-09-11T05:32:01.588Z,2.77
2022-09-11T05:33:35.767Z,2.80
2022-09-11T05:35:09.511Z,3.40
2022-09-11T05:36:41.777Z,4.83
2022-09-11T05:38:15.258Z,4.63
2022-09-11T05:39:48.839Z,4.87
2022-09-11T05:41:24.525Z,5.23
2022-09-11T05:42:57.719Z,5.03
2022-09-11T05:44:31.576Z,5.07
2022-09-11T05:46:04.867Z,5.40
2022-09-11T05:47:39.852Z,4.90
2022-09-11T05:49:13.137Z,5.30
2022-09-11T05:50:53.815Z,5.40
2022-09-11T05:52:29.786Z,5.00
2022-09-11T05:54:03.134Z,5.37
2022-09-11T05:55:36.533Z,5.10
2022-09-11T05:57:11.063Z,5.13
2022-09-11T05:58:46.165Z,5.17
2022-09-11T06:00:20.674Z,5.20
2022-09-11T06:01:56.653Z,5.47
2022-09-11T06:03:47.442Z,5.50
2022-09-11T06:05:20.866Z,5.30
2022-09-11T06:06:54.512Z,4.70
2022-09-11T06:08:27.623Z,5.10
2022-09-11T06:10:03.321Z,4.77
2022-09-11T06:11:38.014Z,5.00
2022-09-11T06:13:12.511Z,5.60
2022-09-11T06:14:45.697Z,4.77
2022-09-11T06:16:21.833Z,5.20
2022-09-11T06:17:55.953Z,5.63
2022-09-11T06:19:29.038Z,5.13
2022-09-11T06:21:07.109Z,5.77
2022-09-11T06:22:51.029Z,5.40
2022-09-11T06:24:24.133Z,5.70
2022-09-11T06:26:04.728Z,5.87
2022-09-11T06:27:41.070Z,5.27
2022-09-11T06:29:16.180Z,5.87
2022-09-11T06:30:54.009Z,5.63
2022-09-11T06:32:27.201Z,5.27
2022-09-11T06:34:00.605Z,5.17
2022-09-11T06:35:33.694Z,5.87
2022-09-11T06:37:07.538Z,5.77
2022-09-11T06:38:40.634Z,5.77
2022-09-11T06:40:18.381Z,6.03
2022-09-11T06:41:53.898Z,6.13
2022-09-11T06:43:33.226Z,6.23
2022-09-11T06:45:09.439Z,6.80
2022-09-11T06:46:42.932Z,7.50
2022-09-11T06:48:17.358Z,8.27
2022-09-11T06:49:51.371Z,9.27
2022-09-11T06:51:35.970Z,9.87
2022-09-11T06:53:09.400Z,9.40
2022-09-11T06:54:45.431Z,10.33
2022-09-11T06:56:22.326Z,10.80
2022-09-11T06:57:56.443Z,10.23
2022-09-11T06:59:33.138Z,10.33
2022-09-11T07:01:11.046Z,10.53
2022-09-11T07:02:46.364Z,10.37
2022-09-11T07:04:20.545Z,9.93
2022-09-11T07:05:54.484Z,11.00
2022-09-11T07:07:27.558Z,11.30
2022-09-11T07:09:02.772Z,10.80
2022-09-11T07:10:49.447Z,10.87
2022-09-11T07:12:23.963Z,10.27
2022-09-11T07:13:57.386Z,10.13
2022-09-11T07:15:32.027Z,10.37
2022-09-11T07:17:07.289Z,9.97
2022-09-11T07:18:42.164Z,9.93
2022-09-11T07:20:18.937Z,10.80
2022-09-11T07:21:52.206Z,10.27
2022-09-11T07:23:26.966Z,9.87
2022-09-11T07:25:02.800Z,9.83
2022-09-11T07:26:39.841Z,10.03
2022-09-11T07:28:17.406Z,10.00
2022-09-11T07:29:50.595Z,10.90
2022-09-11T07:31:26.470Z,9.50
2022-09-11T07:33:00.894Z,10.47
2022-09-11T07:34:33.973Z,10.20
2022-09-11T07:36:12.485Z,10.67
2022-09-11T07:37:50.999Z,10.40
2022-09-11T07:39:25.165Z,10.37
2022-09-11T07:41:03.615Z,10.93
2022-09-11T07:42:36.816Z,9.60
2022-09-11T07:44:09.968Z,9.97
2022-09-11T07:45:43.126Z,11.67
2022-09-11T07:47:16.704Z,10.50
2022-09-11T07:48:56.286Z,11.33
2022-09-11T07:50:29.831Z,11.10
2022-09-11T07:52:04.311Z,11.53
2022-09-11T07:53:49.604Z,11.33
2022-09-11T07:55:22.905Z,10.53
2022-09-11T07:56:58.089Z,11.23
2022-09-11T07:58:36.754Z,11.20
2022-09-11T08:00:11.070Z,10.40
2022-09-11T08:01:53.261Z,8.93
2022-09-11T08:03:27.177Z,9.67
2022-09-11T08:05:01.597Z,8.70
2022-09-11T08:06:36.763Z,8.30
2022-09-11T08:08:12.079Z,9.23
2022-09-11T08:09:45.485Z,8.47
2022-09-11T08:11:19.726Z,9.87
2022-09-11T08:12:55.754Z,8.20
2022-09-11T08:14:32.379Z,8.60
2022-09-11T08:16:12.793Z,8.30
2022-09-11T08:17:46.885Z,7.60
2022-09-11T08:19:22.488Z,7.83
2022-09-11T08:21:08.558Z,7.87
2022-09-11T08:22:44.917Z,8.20
2022-09-11T08:24:20.207Z,9.37
2022-09-11T08:25:54.400Z,9.53
2022-09-11T08:27:28.083Z,9.13
2022-09-11T08:29:01.890Z,9.13
2022-09-11T08:30:38.555Z,8.70
2022-09-11T08:32:13.282Z,8.80
2022-09-11T08:33:46.865Z,8.63
2022-09-11T08:35:20.333Z,8.57
2022-09-11T08:36:55.189Z,9.23
2022-09-11T08:38:31.181Z,9.80
2022-09-11T08:40:04.689Z,9.53
2022-09-11T08:41:48.805Z,8.37
2022-09-11T08:43:27.038Z,8.37
2022-09-11T08:45:03.446Z,8.20
2022-09-11T08:46:45.348Z,8.57
2022-09-11T08:48:23.022Z,8.37
2022-09-11T08:50:00.306Z,7.47
2022-09-11T08:51:35.092Z,7.20
2022-09-11T08:53:16.273Z,7.17
2022-09-11T08:54:50.593Z,7.70
2022-09-11T08:56:26.576Z,8.10
2022-09-11T08:58:09.453Z,7.33
2022-09-11T09:00:07.155Z,7.70
2022-09-11T09:01:55.073Z,8.57
2022-09-11T09:03:44.962Z,10.87
2022-09-11T09:05:28.826Z,11.60
2022-09-11T09:07:09.460Z,11.40
2022-09-11T09:08:55.042Z,11.57
2022-09-11T09:10:38.284Z,11.63
2022-09-11T09:12:20.830Z,11.20
2022-09-11T09:14:15.183Z,10.40
2022-09-11T09:15:54.872Z,10.87
2022-09-11T09:17:34.289Z,12.17
2022-09-11T09:19:14.734Z,13.97
2022-09-11T09:20:56.186Z,14.90
2022-09-11T09:22:40.180Z,16.50
2022-09-11T09:24:20.548Z,16.40
2022-09-11T09:25:57.817Z,17.77
2022-09-11T09:27:35.639Z,17.20
2022-09-11T09:29:15.725Z,16.87
2022-09-11T09:30:54.660Z,15.43
2022-09-11T09:32:33.132Z,15.07
2022-09-11T09:34:09.724Z,15.43
2022-09-11T09:35:45.535Z,14.87
2022-09-11T09:37:26.222Z,14.00
2022-09-11T09:39:00.245Z,15.50
2022-09-11T09:40:37.248Z,15.13
2022-09-11T09:42:51.975Z,15.63
2022-09-11T09:44:39.668Z,15.87
2022-09-11T09:46:20.461Z,16.70
2022-09-11T09:47:53.613Z,18.07
2022-09-11T09:49:28.990Z,17.40
2022-09-11T09:51:04.073Z,17.17
2022-09-11T09:52:37.315Z,17.50
2022-09-11T09:54:16.014Z,17.57
2022-09-11T09:55:53.517Z,17.07
2022-09-11T09:57:30.199Z,18.47
2022-09-11T09:59:13.241Z,19.10
2022-09-11T10:00:46.396Z,19.60
2022-09-11T10:02:41.234Z,19.67
2022-09-11T10:04:17.797Z,19.20
2022-09-11T10:05:53.357Z,18.33
2022-09-11T10:07:26.457Z,18.17
2022-09-11T10:09:03.302Z,18.30
2022-09-11T10:10:38.457Z,17.93
2022-09-11T10:12:24.295Z,19.50
2022-09-11T10:13:58.036Z,18.70
2022-09-11T10:15:31.640Z,20.80
2022-09-11T10:17:04.831Z,19.47
2022-09-11T10:18:43.889Z,20.80
2022-09-11T10:20:26.925Z,20.97
2022-09-11T10:22:23.134Z,22.47
2022-09-11T10:23:58.013Z,22.03
2022-09-11T10:25:49.941Z,21.40
2022-09-11T10:27:27.215Z,23.83
2022-09-11T10:29:10.255Z,23.00
2022-09-11T10:30:55.038Z,23.00
2022-09-11T10:32:28.933Z,23.10
2022-09-11T10:34:02.234Z,24.70
2022-09-11T10:35:37.748Z,23.93
2022-09-11T10:37:24.635Z,24.43
2022-09-11T10:39:00.218Z,25.07
2022-09-11T10:40:32.340Z,24.77
2022-09-11T10:42:16.634Z,24.50
2022-09-11T10:43:56.011Z,23.03
2022-09-11T10:45:29.173Z,23.40
2022-09-11T10:47:07.215Z,23.60
2022-09-11T10:48:42.923Z,24.07
2022-09-11T10:50:25.797Z,22.30
2022-09-11T10:52:00.345Z,20.87
2022-09-11T10:53:38.859Z,20.97
2022-09-11T10:55:15.476Z,22.43
2022-09-11T10:57:05.462Z,25.30
2022-09-11T10:58:41.335Z,23.87
2022-09-11T11:00:20.131Z,24.30
2022-09-11T11:01:52.298Z,26.27
2022-09-11T11:03:27.409Z,25.00
2022-09-11T11:05:03.528Z,26.77
2022-09-11T11:06:50.680Z,27.67
2022-09-11T11:08:46.357Z,24.90
2022-09-11T11:10:32.548Z,24.93
2022-09-11T11:12:20.059Z,23.53
2022-09-11T11:14:05.955Z,22.07
2022-09-11T11:15:53.767Z,22.73
2022-09-11T11:17:36.032Z,20.77
2022-09-11T11:19:37.054Z,21.67
2022-09-11T11:21:23.287Z,20.70
2022-09-11T11:23:16.663Z,20.57
2022-09-11T11:25:00.558Z,21.77
2022-09-11T11:26:47.647Z,20.13
2022-09-11T11:28:40.083Z,20.33
2022-09-11T11:30:17.814Z,18.23
2022-09-11T11:32:12.738Z,19.37
2022-09-11T11:34:09.271Z,19.23
2022-09-11T11:35:50.219Z,17.87
2022-09-11T11:37:32.291Z,17.30
2022-09-11T11:39:17.722Z,16.37
2022-09-11T11:40:55.796Z,15.67
2022-09-11T11:42:32.957Z,14.60
2022-09-11T11:44:12.215Z,14.43
2022-09-11T11:45:49.130Z,15.50
2022-09-11T11:47:27.501Z,14.97
2022-09-11T11:49:03.005Z,15.20
2022-09-11T11:50:42.168Z,15.10
2022-09-11T11:52:23.303Z,14.83
2022-09-11T11:54:02.838Z,14.87
2022-09-11T11:55:46.954Z,14.87
2022-09-11T11:57:22.529Z,15.00
2022-09-11T11:59:00.009Z,15.93
2022-09-11T12:00:39.015Z,16.07
2022-09-11T12:02:19.182Z,16.83
2022-09-11T12:04:02.691Z,15.93
2022-09-11T12:05:36.238Z,17.53
2022-09-11T12:07:17.254Z,17.53
2022-09-11T12:08:51.844Z,17.40
2022-09-11T12:10:31.555Z,18.07
2022-09-11T12:12:07.494Z,18.53
2022-09-11T12:13:45.047Z,19.10
2022-09-11T12:15:20.891Z,20.30
2022-09-11T12:16:54.730Z,21.23
2022-09-11T12:18:27.846Z,20.27
2022-09-11T12:20:41.534Z,19.47
2022-09-11T12:22:15.348Z,19.50
2022-09-11T12:24:17.870Z,20.97
2022-09-11T12:26:18.246Z,19.43
2022-09-11T12:27:55.778Z,20.47
2022-09-11T12:29:55.543Z,19.73
2022-09-11T12:32:06.863Z,20.90
2022-09-11T12:33:58.093Z,20.63
2022-09-11T12:35:41.640Z,21.20
2022-09-11T12:37:26.691Z,20.40
2022-09-11T12:39:04.073Z,21.33
2022-09-11T12:40:41.290Z,20.03
2022-09-11T12:42:56.089Z,20.27
2022-09-11T12:44:32.061Z,20.17
2022-09-11T12:46:07.158Z,20.97
2022-09-11T12:47:41.365Z,21.27
2022-09-11T12:49:22.715Z,20.17
2022-09-11T12:50:58.013Z,17.20
2022-09-11T12:52:42.710Z,17.67
2022-09-11T12:54:18.441Z,17.50
2022-09-11T12:55:57.088Z,18.63
2022-09-11T12:57:35.240Z,17.60
2022-09-11T12:59:10.949Z,16.53
2022-09-11T13:00:47.623Z,17.13
2022-09-11T13:02:28.383Z,16.00
2022-09-11T13:04:07.125Z,16.30
2022-09-11T13:05:41.859Z,16.17
2022-09-11T13:07:27.597Z,15.80
2022-09-11T13:09:03.477Z,15.50
2022-09-11T13:10:38.905Z,14.77
2022-09-11T13:12:51.664Z,14.10
2022-09-11T13:14:50.246Z,14.90
2022-09-11T13:16:25.463Z,14.33
2022-09-11T13:17:58.539Z,14.57
2022-09-11T13:19:33.934Z,14.63
2022-09-11T13:21:18.196Z,12.17
2022-09-11T13:22:57.636Z,13.57
2022-09-11T13:24:35.268Z,12.13
2022-09-11T13:26:09.597Z,12.20
2022-09-11T13:27:44.190Z,12.53
2022-09-11T13:29:17.257Z,11.60
2022-09-11T13:30:56.628Z,12.17
2022-09-11T13:32:29.946Z,11.90
2022-09-11T13:34:05.021Z,11.40
2022-09-11T13:35:40.403Z,10.57
2022-09-11T13:37:16.344Z,11.03
2022-09-11T13:38:51.799Z,10.53
2022-09-11T13:40:31.169Z,10.30
2022-09-11T13:42:04.371Z,11.03
2022-09-11T13:43:42.797Z,10.37
2022-09-11T13:45:19.291Z,10.93
2022-09-11T13:46:53.275Z,10.87
2022-09-11T13:48:26.738Z,10.83
2022-09-11T13:50:02.440Z,11.10
2022-09-11T13:51:37.046Z,10.83
2022-09-11T13:53:09.784Z,10.93
2022-09-11T13:54:46.753Z,11.10
2022-09-11T13:56:38.685Z,10.93
2022-09-11T13:58:24.499Z,11.23
2022-09-11T13:59:58.325Z,10.03
2022-09-11T14:01:30.948Z,11.07
2022-09-11T14:03:06.841Z,10.70
2022-09-11T14:04:42.084Z,10.27
2022-09-11T14:06:18.670Z,10.50
2022-09-11T14:07:58.701Z,11.37
2022-09-11T14:09:31.773Z,11.30
2022-09-11T14:11:11.242Z,10.13
2022-09-11T14:12:51.544Z,10.03
2022-09-11T14:14:28.163Z,9.70
2022-09-11T14:16:05.844Z,9.63
2022-09-11T14:17:42.093Z,9.83
2022-09-11T14:19:20.758Z,9.97
2022-09-11T14:20:56.209Z,9.53
2022-09-11T14:22:32.101Z,9.63
2022-09-11T14:24:22.958Z,10.43
2022-09-11T14:26:08.911Z,9.33
2022-09-11T14:27:45.491Z,9.73
2022-09-11T14:29:28.551Z,9.40
2022-09-11T14:31:06.913Z,9.17
2022-09-11T14:32:40.114Z,9.37
2022-09-11T14:34:16.178Z,9.77
2022-09-11T14:35:48.799Z,9.70
2022-09-11T14:37:22.907Z,9.23
2022-09-11T14:39:05.462Z,9.30
2022-09-11T14:40:37.688Z,9.10
2022-09-11T14:42:16.069Z,9.37
2022-09-11T14:43:49.664Z,8.80
2022-09-11T14:45:26.482Z,9.30
2022-09-11T14:46:59.929Z,9.00
2022-09-11T14:48:35.471Z,9.17
2022-09-11T14:50:12.217Z,8.50
2022-09-11T14:51:49.111Z,8.90
2022-09-11T14:53:28.225Z,7.93
2022-09-11T14:55:01.276Z,9.20
2022-09-11T14:56:34.408Z,8.47
2022-09-11T14:58:08.993Z,8.80
2022-09-11T14:59:42.155Z,8.97
2022-09-11T15:01:16.574Z,9.50
2022-09-11T15:02:49.625Z,8.73
2022-09-11T15:04:23.973Z,8.67
2022-09-11T15:05:59.647Z,9.07
2022-09-11T15:07:35.473Z,8.50
2022-09-11T15:09:08.563Z,7.97
2022-09-11T15:10:42.421Z,8.20
2022-09-11T15:12:15.940Z,7.50
2022-09-11T15:14:13.352Z,7.17
2022-09-11T15:15:42.449Z,7.10
2022-09-11T15:17:20.142Z,7.23
2022-09-11T15:18:54.837Z,6.73
2022-09-11T15:20:28.001Z,5.80
2022-09-11T15:22:01.049Z,5.73
2022-09-11T15:23:34.237Z,5.97
2022-09-11T15:25:08.460Z,5.97
2022-09-11T15:26:41.559Z,5.53
2022-09-11T15:28:14.667Z,6.23
2022-09-11T15:29:46.738Z,6.33
2022-09-11T15:31:20.090Z,6.57
2022-09-11T15:32:54.643Z,6.33
2022-09-11T15:34:33.163Z,6.53
2022-09-11T15:36:06.888Z,5.23
2022-09-11T15:37:40.308Z,6.60
2022-09-11T15:39:15.230Z,6.13
2022-09-11T15:40:56.672Z,6.03
2022-09-11T15:42:30.255Z,6.60
2022-09-11T15:44:09.616Z,6.50
2022-09-11T15:45:44.191Z,6.03
2022-09-11T15:47:17.341Z,6.00
2022-09-11T15:48:52.010Z,6.13
2022-09-11T15:50:28.382Z,6.63
2022-09-11T15:52:01.129Z,6.77
2022-09-11T15:53:34.776Z,6.60
2022-09-11T15:55:09.966Z,6.30
2022-09-11T15:56:43.328Z,6.30
2022-09-11T15:58:16.534Z,5.93
2022-09-11T15:59:52.239Z,6.33
2022-09-11T16:01:27.975Z,6.60
2022-09-11T16:03:00.994Z,5.90
2022-09-11T16:04:38.799Z,5.73
2022-09-11T16:06:12.089Z,6.40
2022-09-11T16:07:45.121Z,7.17
2022-09-11T16:09:19.926Z,6.67
2022-09-11T16:10:53.177Z,6.07
2022-09-11T16:12:26.337Z,10.03
2022-09-11T16:14:00.722Z,9.33
2022-09-11T16:15:34.428Z,6.80
2022-09-11T16:17:08.711Z,6.47
2022-09-11T16:18:42.557Z,5.93
2022-09-11T16:20:17.161Z,7.50
2022-09-11T16:21:50.941Z,6.80
2022-09-11T16:23:24.188Z,5.83
2022-09-11T16:24:58.992Z,6.13
2022-09-11T16:26:32.081Z,6.30
2022-09-11T16:28:05.855Z,5.70
2022-09-11T16:30:11.403Z,5.80
2022-09-11T16:31:32.304Z,6.07
2022-09-11T16:33:05.444Z,6.13
2022-09-11T16:34:38.710Z,5.87
2022-09-11T16:36:17.362Z,5.90
2022-09-11T16:37:50.559Z,6.43
2022-09-11T16:39:23.904Z,6.43
2022-09-11T16:41:04.144Z,6.60
2022-09-11T16:42:37.257Z,6.20
2022-09-11T16:44:13.232Z,6.57
2022-09-11T16:45:51.699Z,6.13
2022-09-11T16:47:24.856Z,6.13
2022-09-11T16:49:01.557Z,6.00
2022-09-11T16:50:35.115Z,6.23
2022-09-11T16:52:10.882Z,6.00
2022-09-11T16:53:45.305Z,6.20
2022-09-11T16:55:20.021Z,6.40
2022-09-11T16:56:53.079Z,6.37
2022-09-11T16:58:26.511Z,6.83
2022-09-11T16:59:59.994Z,6.87
2022-09-11T17:01:33.220Z,6.50
2022-09-11T17:03:06.592Z,7.07
2022-09-11T17:04:39.678Z,6.97
2022-09-11T17:06:14.577Z,6.60
2022-09-11T17:07:48.979Z,6.30
2022-09-11T17:09:22.283Z,5.63
2022-09-11T17:10:57.670Z,6.57
2022-09-11T17:12:30.769Z,5.70
2022-09-11T17:14:04.853Z,6.27
2022-09-11T17:15:38.074Z,6.10
2022-09-11T17:17:11.120Z,5.93
2022-09-11T17:18:47.328Z,5.87
2022-09-11T17:20:20.378Z,6.20
2022-09-11T17:21:53.505Z,6.13
2022-09-11T17:23:26.965Z,6.60
2022-09-11T17:25:00.010Z,6.63
2022-09-11T17:26:33.571Z,6.10
2022-09-11T17:28:06.888Z,6.43
2022-09-11T17:29:44.295Z,6.40
2022-09-11T17:31:19.471Z,6.87
2022-09-11T17:32:52.867Z,7.20
2022-09-11T17:34:26.260Z,6.97
2022-09-11T17:35:59.618Z,8.43
2022-09-11T17:37:32.787Z,8.43
2022-09-11T17:39:07.336Z,7.97
2022-09-11T17:40:41.256Z,7.83
2022-09-11T17:42:14.333Z,7.93
2022-09-11T17:43:47.958Z,8.00
2022-09-11T17:45:21.066Z,7.67
2022-09-11T17:46:56.639Z,7.67
2022-09-11T17:48:30.145Z,7.23
2022-09-11T17:50:03.356Z,7.03
2022-09-11T17:51:36.431Z,7.23
2022-09-11T17:53:09.496Z,7.07
2022-09-11T17:54:43.885Z,7.70
2022-09-11T17:56:19.127Z,7.17
2022-09-11T17:57:55.678Z,7.43
2022-09-11T17:59:28.890Z,7.00
2022-09-11T18:01:02.894Z,7.20
2022-09-11T18:02:36.125Z,7.27
2022-09-11T18:04:10.303Z,6.90
2022-09-11T18:05:44.132Z,7.17
2022-09-11T18:07:17.371Z,7.00
2022-09-11T18:08:50.435Z,8.00
2022-09-11T18:10:24.885Z,7.40
2022-09-11T18:11:58.126Z,7.17
2022-09-11T18:13:35.195Z,6.67
2022-09-11T18:15:09.586Z,7.13
2022-09-11T18:16:45.248Z,6.97
2022-09-11T18:18:19.236Z,7.33
2022-09-11T18:19:52.276Z,7.73
2022-09-11T18:21:26.011Z,6.70
2022-09-11T18:22:59.761Z,6.80
2022-09-11T18:24:33.142Z,6.60
2022-09-11T18:26:09.686Z,6.60
2022-09-11T18:27:43.908Z,7.60
2022-09-11T18:29:19.966Z,6.80
2022-09-11T18:30:53.232Z,6.73
2022-09-11T18:32:26.842Z,6.50
2022-09-11T18:34:01.709Z,6.30
2022-09-11T18:35:34.864Z,6.80
2022-09-11T18:37:08.658Z,6.27
2022-09-11T18:38:41.677Z,6.90
2022-09-11T18:40:14.789Z,7.37
2022-09-11T18:41:50.356Z,6.87
2022-09-11T18:43:23.428Z,6.97
2022-09-11T18:44:56.592Z,7.97
2022-09-11T18:46:31.649Z,7.73
2022-09-11T18:48:04.818Z,8.53
2022-09-11T18:49:38.247Z,7.93
2022-09-11T18:51:12.291Z,8.37
2022-09-11T18:52:46.059Z,8.27
2022-09-11T18:54:21.244Z,9.13
2022-09-11T18:56:01.771Z,8.40
2022-09-11T18:57:40.759Z,9.67
2022-09-11T18:59:15.663Z,10.87
2022-09-11T19:00:49.041Z,12.33
2022-09-11T19:02:22.393Z,13.77
2022-09-11T19:03:55.419Z,13.23
2022-09-11T19:05:31.097Z,13.10
2022-09-11T19:07:04.892Z,13.60
2022-09-11T19:08:38.316Z,14.20
2022-09-11T19:10:12.435Z,14.87
2022-09-11T19:11:45.717Z,15.17
2022-09-11T19:13:22.606Z,15.07
2022-09-11T19:14:55.629Z,13.97
2022-09-11T19:16:28.943Z,14.77
2022-09-11T19:18:02.107Z,14.70
2022-09-11T19:19:35.149Z,14.03
2022-09-11T19:21:11.620Z,14.50
2022-09-11T19:22:44.699Z,14.03
2022-09-11T19:24:17.752Z,13.90
2022-09-11T19:25:50.786Z,14.37
2022-09-11T19:27:26.057Z,14.10
2022-09-11T19:29:01.018Z,14.40
2022-09-11T19:30:34.114Z,14.43
2022-09-11T19:32:08.343Z,13.33
2022-09-11T19:33:42.729Z,11.90
2022-09-11T19:35:16.001Z,13.60
2022-09-11T19:36:51.306Z,14.00
2022-09-11T19:38:25.473Z,14.97
2022-09-11T19:40:00.681Z,13.67
2022-09-11T19:41:35.258Z,15.03
2022-09-11T19:43:08.428Z,15.17
2022-09-11T19:44:42.817Z,13.37
2022-09-11T19:46:17.520Z,12.80
2022-09-11T19:47:50.879Z,11.97
2022-09-11T19:49:24.068Z,13.10
2022-09-11T19:50:57.168Z,13.13
2022-09-11T19:52:33.065Z,13.10
2022-09-11T19:54:06.773Z,13.27
2022-09-11T19:55:40.028Z,11.57
2022-09-11T19:57:13.032Z,12.83
2022-09-11T19:58:45.430Z,12.70
2022-09-11T20:00:20.395Z,11.47
2022-09-11T20:01:53.485Z,12.37
2022-09-11T20:03:26.537Z,12.37
2022-09-11T20:05:00.356Z,10.90
2022-09-11T20:06:35.711Z,11.70
2022-09-11T20:08:11.812Z,13.20
2022-09-11T20:09:48.402Z,13.73
2022-09-11T20:11:23.366Z,13.43
2022-09-11T20:12:56.377Z,13.70
2022-09-11T20:14:30.362Z,14.60
2022-09-11T20:16:05.876Z,15.37
2022-09-11T20:17:41.047Z,14.73
2022-09-11T20:19:15.068Z,15.47
2022-09-11T20:20:47.288Z,15.33
2022-09-11T20:22:21.991Z,15.77
2022-09-11T20:23:56.698Z,15.73
2022-09-11T20:25:29.764Z,14.53
2022-09-11T20:27:02.803Z,15.17
2022-09-11T20:28:35.900Z,16.17
2022-09-11T20:30:10.450Z,14.87
2022-09-11T20:31:47.947Z,15.43
2022-09-11T20:33:21.782Z,13.90
2022-09-11T20:34:54.799Z,15.40
2022-09-11T20:36:29.896Z,12.87
2022-09-11T20:38:02.948Z,13.87
2022-09-11T20:39:36.250Z,14.13
2022-09-11T20:41:09.817Z,12.80
2022-09-11T20:42:42.875Z,12.70
2022-09-11T20:44:15.931Z,13.77
2022-09-11T20:45:50.510Z,12.83
2022-09-11T20:47:25.108Z,12.03
2022-09-11T20:48:58.147Z,12.10
2022-09-11T20:50:31.274Z,12.30
2022-09-11T20:52:04.624Z,13.10
2022-09-11T20:53:38.519Z,13.00
2022-09-11T20:55:11.719Z,12.70
2022-09-11T20:56:46.225Z,12.40
2022-09-11T20:58:18.326Z,12.93
2022-09-11T20:59:51.336Z,13.07
2022-09-11T21:01:26.196Z,12.57
2022-09-11T21:03:00.679Z,12.93
2022-09-11T21:04:33.927Z,12.30
2022-09-11T21:06:07.229Z,13.33
2022-09-11T21:07:40.268Z,13.60
2022-09-11T21:09:13.326Z,14.10
2022-09-11T21:10:45.432Z,14.33
2022-09-11T21:12:19.135Z,13.33